sensor_id;sensor_type;location;lat;lon;timestamp;P1;durP1;ratioP1;P2;durP2;ratioP2
6043;SDS011;3050;42.660;23.276;2023-07-08T00:02:09;8.00;;;7.00;;
6043;SDS011;3050;42.660;23.276;2023-07-08T00:04:37;10.90;;;8.13;;
6043;SDS011;3050;42.660;23.276;2023-07-08T00:07:04;8.98;;;7.03;;
6043;SDS011;3050;42.660;23.276;2023-07-08T00:09:31;8.63;;;7.68;;
6043;SDS011;3050;42.660;23.276;2023-07-08T00:11:57;10.43;;;7.97;;
6043;SDS011;3050;42.660;23.276;2023-07-08T00:14:24;10.38;;;7.80;;
6043;SDS011;3050;42.660;23.276;2023-07-08T00:16:52;12.40;;;8.32;;
6043;SDS011;3050;42.660;23.276;2023-07-08T00:19:19;8.35;;;7.40;;
6043;SDS011;3050;42.660;23.276;2023-07-08T00:21:48;8.15;;;7.38;;
6043;SDS011;3050;42.660;23.276;2023-07-08T00:24:16;14.35;;;6.88;;
6043;SDS011;3050;42.660;23.276;2023-07-08T00:26:43;10.73;;;7.47;;
6043;SDS011;3050;42.660;23.276;2023-07-08T00:29:10;9.07;;;7.30;;
6043;SDS011;3050;42.660;23.276;2023-07-08T00:31:37;9.50;;;7.57;;
6043;SDS011;3050;42.660;23.276;2023-07-08T00:34:05;8.40;;;7.38;;
6043;SDS011;3050;42.660;23.276;2023-07-08T00:36:32;13.43;;;7.03;;
6043;SDS011;3050;42.660;23.276;2023-07-08T00:38:59;11.07;;;7.70;;
6043;SDS011;3050;42.660;23.276;2023-07-08T00:41:27;11.85;;;8.13;;
6043;SDS011;3050;42.660;23.276;2023-07-08T00:43:55;9.90;;;7.88;;
6043;SDS011;3050;42.660;23.276;2023-07-08T00:46:31;11.30;;;7.78;;
6043;SDS011;3050;42.660;23.276;2023-07-08T00:49:01;15.35;;;8.32;;
6043;SDS011;3050;42.660;23.276;2023-07-08T00:51:31;9.57;;;8.10;;
6043;SDS011;3050;42.660;23.276;2023-07-08T00:53:58;8.25;;;7.40;;
6043;SDS011;3050;42.660;23.276;2023-07-08T00:56:25;18.33;;;8.00;;
6043;SDS011;3050;42.660;23.276;2023-07-08T00:58:53;7.93;;;6.95;;
6043;SDS011;3050;42.660;23.276;2023-07-08T01:01:23;9.75;;;7.78;;
6043;SDS011;3050;42.660;23.276;2023-07-08T01:03:53;9.05;;;7.00;;
6043;SDS011;3050;42.660;23.276;2023-07-08T01:06:20;8.65;;;7.75;;
6043;SDS011;3050;42.660;23.276;2023-07-08T01:08:49;8.75;;;7.05;;
6043;SDS011;3050;42.660;23.276;2023-07-08T01:11:19;8.82;;;7.35;;
6043;SDS011;3050;42.660;23.276;2023-07-08T01:13:46;9.07;;;6.93;;
6043;SDS011;3050;42.660;23.276;2023-07-08T01:16:14;7.43;;;6.45;;
6043;SDS011;3050;42.660;23.276;2023-07-08T01:18:41;10.18;;;7.88;;
6043;SDS011;3050;42.660;23.276;2023-07-08T01:23:51;10.65;;;7.63;;
6043;SDS011;3050;42.660;23.276;2023-07-08T01:26:21;10.45;;;7.82;;
6043;SDS011;3050;42.660;23.276;2023-07-08T01:28:50;9.25;;;7.70;;
6043;SDS011;3050;42.660;23.276;2023-07-08T01:31:17;9.38;;;8.18;;
6043;SDS011;3050;42.660;23.276;2023-07-08T01:33:44;7.60;;;6.78;;
6043;SDS011;3050;42.660;23.276;2023-07-08T01:36:11;9.43;;;7.47;;
6043;SDS011;3050;42.660;23.276;2023-07-08T01:38:38;8.20;;;7.38;;
6043;SDS011;3050;42.660;23.276;2023-07-08T01:41:10;9.27;;;7.38;;
6043;SDS011;3050;42.660;23.276;2023-07-08T01:43:37;8.05;;;7.25;;
6043;SDS011;3050;42.660;23.276;2023-07-08T01:46:04;9.18;;;8.00;;
6043;SDS011;3050;42.660;23.276;2023-07-08T01:48:38;8.48;;;6.82;;
6043;SDS011;3050;42.660;23.276;2023-07-08T01:51:06;7.85;;;6.78;;
6043;SDS011;3050;42.660;23.276;2023-07-08T01:53:34;7.35;;;6.65;;
6043;SDS011;3050;42.660;23.276;2023-07-08T01:56:00;9.43;;;6.90;;
6043;SDS011;3050;42.660;23.276;2023-07-08T01:58:28;7.47;;;6.78;;
6043;SDS011;3050;42.660;23.276;2023-07-08T02:00:55;7.80;;;6.90;;
6043;SDS011;3050;42.660;23.276;2023-07-08T02:03:22;9.80;;;7.18;;
6043;SDS011;3050;42.660;23.276;2023-07-08T02:05:49;9.20;;;6.85;;
6043;SDS011;3050;42.660;23.276;2023-07-08T02:08:16;7.00;;;6.30;;
6043;SDS011;3050;42.660;23.276;2023-07-08T02:10:44;10.07;;;6.82;;
6043;SDS011;3050;42.660;23.276;2023-07-08T02:13:11;8.90;;;7.05;;
6043;SDS011;3050;42.660;23.276;2023-07-08T02:15:39;7.32;;;6.63;;
6043;SDS011;3050;42.660;23.276;2023-07-08T02:18:06;7.88;;;6.47;;
6043;SDS011;3050;42.660;23.276;2023-07-08T02:20:32;7.13;;;6.43;;
6043;SDS011;3050;42.660;23.276;2023-07-08T02:22:59;7.97;;;6.72;;
6043;SDS011;3050;42.660;23.276;2023-07-08T02:25:26;7.43;;;6.78;;
6043;SDS011;3050;42.660;23.276;2023-07-08T02:27:53;7.13;;;6.43;;
6043;SDS011;3050;42.660;23.276;2023-07-08T02:30:22;8.63;;;6.72;;
6043;SDS011;3050;42.660;23.276;2023-07-08T02:32:50;10.15;;;7.32;;
6043;SDS011;3050;42.660;23.276;2023-07-08T02:35:22;8.15;;;6.22;;
6043;SDS011;3050;42.660;23.276;2023-07-08T02:37:49;8.52;;;7.65;;
6043;SDS011;3050;42.660;23.276;2023-07-08T02:40:16;10.50;;;7.45;;
6043;SDS011;3050;42.660;23.276;2023-07-08T02:42:42;11.43;;;7.38;;
6043;SDS011;3050;42.660;23.276;2023-07-08T02:45:09;8.13;;;7.30;;
6043;SDS011;3050;42.660;23.276;2023-07-08T02:47:36;7.55;;;6.70;;
6043;SDS011;3050;42.660;23.276;2023-07-08T02:50:04;7.40;;;6.80;;
6043;SDS011;3050;42.660;23.276;2023-07-08T02:52:31;9.77;;;7.75;;
6043;SDS011;3050;42.660;23.276;2023-07-08T02:54:58;7.57;;;6.93;;
6043;SDS011;3050;42.660;23.276;2023-07-08T02:57:25;10.68;;;6.75;;
6043;SDS011;3050;42.660;23.276;2023-07-08T02:59:51;10.02;;;7.50;;
6043;SDS011;3050;42.660;23.276;2023-07-08T03:02:18;8.82;;;7.20;;
6043;SDS011;3050;42.660;23.276;2023-07-08T03:04:45;7.43;;;6.72;;
6043;SDS011;3050;42.660;23.276;2023-07-08T03:07:13;7.15;;;5.93;;
6043;SDS011;3050;42.660;23.276;2023-07-08T03:09:40;10.50;;;6.25;;
6043;SDS011;3050;42.660;23.276;2023-07-08T03:12:07;14.93;;;7.10;;
6043;SDS011;3050;42.660;23.276;2023-07-08T03:14:34;8.90;;;6.35;;
6043;SDS011;3050;42.660;23.276;2023-07-08T03:17:01;6.70;;;6.03;;
6043;SDS011;3050;42.660;23.276;2023-07-08T03:19:28;6.43;;;5.90;;
6043;SDS011;3050;42.660;23.276;2023-07-08T03:21:54;5.70;;;5.20;;
6043;SDS011;3050;42.660;23.276;2023-07-08T03:24:23;6.47;;;5.95;;
6043;SDS011;3050;42.660;23.276;2023-07-08T03:26:49;6.57;;;5.72;;
6043;SDS011;3050;42.660;23.276;2023-07-08T03:29:19;7.00;;;5.97;;
6043;SDS011;3050;42.660;23.276;2023-07-08T03:31:46;6.13;;;5.40;;
6043;SDS011;3050;42.660;23.276;2023-07-08T03:34:13;6.20;;;5.68;;
6043;SDS011;3050;42.660;23.276;2023-07-08T03:36:40;6.20;;;5.60;;
6043;SDS011;3050;42.660;23.276;2023-07-08T03:39:09;5.18;;;4.78;;
6043;SDS011;3050;42.660;23.276;2023-07-08T03:41:37;5.53;;;5.15;;
6043;SDS011;3050;42.660;23.276;2023-07-08T03:44:04;4.95;;;4.55;;
6043;SDS011;3050;42.660;23.276;2023-07-08T03:46:31;5.32;;;4.78;;
6043;SDS011;3050;42.660;23.276;2023-07-08T03:48:57;5.10;;;4.70;;
6043;SDS011;3050;42.660;23.276;2023-07-08T03:51:25;5.35;;;4.90;;
6043;SDS011;3050;42.660;23.276;2023-07-08T03:53:52;6.13;;;4.88;;
6043;SDS011;3050;42.660;23.276;2023-07-08T03:56:19;4.63;;;4.30;;
6043;SDS011;3050;42.660;23.276;2023-07-08T03:58:48;4.57;;;4.38;;
6043;SDS011;3050;42.660;23.276;2023-07-08T04:01:15;5.03;;;4.63;;
6043;SDS011;3050;42.660;23.276;2023-07-08T04:03:44;4.15;;;3.85;;
6043;SDS011;3050;42.660;23.276;2023-07-08T04:06:11;5.05;;;4.25;;
6043;SDS011;3050;42.660;23.276;2023-07-08T04:08:38;4.18;;;3.88;;
6043;SDS011;3050;42.660;23.276;2023-07-08T04:11:05;4.70;;;4.30;;
6043;SDS011;3050;42.660;23.276;2023-07-08T04:13:31;3.88;;;3.55;;
6043;SDS011;3050;42.660;23.276;2023-07-08T04:16:00;4.82;;;4.45;;
6043;SDS011;3050;42.660;23.276;2023-07-08T04:18:27;4.32;;;4.00;;
6043;SDS011;3050;42.660;23.276;2023-07-08T04:20:54;4.18;;;3.97;;
6043;SDS011;3050;42.660;23.276;2023-07-08T04:23:21;5.10;;;4.30;;
6043;SDS011;3050;42.660;23.276;2023-07-08T04:25:48;4.05;;;3.72;;
6043;SDS011;3050;42.660;23.276;2023-07-08T04:28:15;4.20;;;4.00;;
6043;SDS011;3050;42.660;23.276;2023-07-08T04:30:42;5.63;;;4.55;;
6043;SDS011;3050;42.660;23.276;2023-07-08T04:33:11;4.88;;;4.47;;
6043;SDS011;3050;42.660;23.276;2023-07-08T04:35:38;4.07;;;3.78;;
6043;SDS011;3050;42.660;23.276;2023-07-08T04:38:06;4.82;;;4.40;;
6043;SDS011;3050;42.660;23.276;2023-07-08T04:40:34;4.45;;;4.10;;
6043;SDS011;3050;42.660;23.276;2023-07-08T04:43:04;6.28;;;4.72;;
6043;SDS011;3050;42.660;23.276;2023-07-08T04:45:31;4.47;;;4.18;;
6043;SDS011;3050;42.660;23.276;2023-07-08T04:47:58;4.55;;;4.20;;
6043;SDS011;3050;42.660;23.276;2023-07-08T04:50:26;4.65;;;4.03;;
6043;SDS011;3050;42.660;23.276;2023-07-08T04:52:53;4.70;;;4.30;;
6043;SDS011;3050;42.660;23.276;2023-07-08T04:55:19;4.88;;;4.50;;
6043;SDS011;3050;42.660;23.276;2023-07-08T04:57:47;7.50;;;5.20;;
6043;SDS011;3050;42.660;23.276;2023-07-08T05:00:14;8.30;;;5.00;;
6043;SDS011;3050;42.660;23.276;2023-07-08T05:02:42;3.70;;;3.50;;
6043;SDS011;3050;42.660;23.276;2023-07-08T05:05:09;5.22;;;4.82;;
6043;SDS011;3050;42.660;23.276;2023-07-08T05:07:37;4.03;;;3.83;;
6043;SDS011;3050;42.660;23.276;2023-07-08T05:10:04;7.18;;;5.70;;
6043;SDS011;3050;42.660;23.276;2023-07-08T05:12:31;4.43;;;4.03;;
6043;SDS011;3050;42.660;23.276;2023-07-08T05:14:58;3.90;;;3.70;;
6043;SDS011;3050;42.660;23.276;2023-07-08T05:17:24;3.60;;;3.40;;
6043;SDS011;3050;42.660;23.276;2023-07-08T05:19:51;3.92;;;3.72;;
6043;SDS011;3050;42.660;23.276;2023-07-08T05:22:18;4.97;;;4.55;;
6043;SDS011;3050;42.660;23.276;2023-07-08T05:24:51;5.72;;;5.07;;
6043;SDS011;3050;42.660;23.276;2023-07-08T05:27:20;3.85;;;3.55;;
6043;SDS011;3050;42.660;23.276;2023-07-08T05:29:47;10.20;;;4.38;;
6043;SDS011;3050;42.660;23.276;2023-07-08T05:32:14;4.60;;;4.30;;
6043;SDS011;3050;42.660;23.276;2023-07-08T05:34:41;4.22;;;3.88;;
6043;SDS011;3050;42.660;23.276;2023-07-08T05:37:07;6.55;;;4.25;;
6043;SDS011;3050;42.660;23.276;2023-07-08T05:39:34;7.38;;;3.60;;
6043;SDS011;3050;42.660;23.276;2023-07-08T05:42:03;3.60;;;3.40;;
6043;SDS011;3050;42.660;23.276;2023-07-08T05:44:30;4.00;;;3.58;;
6043;SDS011;3050;42.660;23.276;2023-07-08T05:46:56;3.85;;;3.55;;
6043;SDS011;3050;42.660;23.276;2023-07-08T05:49:23;3.47;;;3.28;;
6043;SDS011;3050;42.660;23.276;2023-07-08T05:51:50;8.60;;;3.55;;
6043;SDS011;3050;42.660;23.276;2023-07-08T05:54:16;4.22;;;3.45;;
6043;SDS011;3050;42.660;23.276;2023-07-08T05:56:43;2.90;;;2.80;;
6043;SDS011;3050;42.660;23.276;2023-07-08T05:59:12;3.38;;;3.10;;
6043;SDS011;3050;42.660;23.276;2023-07-08T06:01:39;3.80;;;3.53;;
6043;SDS011;3050;42.660;23.276;2023-07-08T06:04:06;3.63;;;3.42;;
6043;SDS011;3050;42.660;23.276;2023-07-08T06:06:32;3.80;;;3.60;;
6043;SDS011;3050;42.660;23.276;2023-07-08T06:08:59;3.88;;;3.47;;
6043;SDS011;3050;42.660;23.276;2023-07-08T06:11:26;3.75;;;3.45;;
6043;SDS011;3050;42.660;23.276;2023-07-08T06:13:54;4.18;;;3.88;;
6043;SDS011;3050;42.660;23.276;2023-07-08T06:16:22;4.47;;;4.07;;
6043;SDS011;3050;42.660;23.276;2023-07-08T06:18:48;3.83;;;3.60;;
6043;SDS011;3050;42.660;23.276;2023-07-08T06:21:15;4.65;;;3.58;;
6043;SDS011;3050;42.660;23.276;2023-07-08T06:23:41;3.95;;;3.67;;
6043;SDS011;3050;42.660;23.276;2023-07-08T06:26:08;4.35;;;3.95;;
6043;SDS011;3050;42.660;23.276;2023-07-08T06:28:35;3.88;;;3.58;;
6043;SDS011;3050;42.660;23.276;2023-07-08T06:31:01;3.15;;;2.92;;
6043;SDS011;3050;42.660;23.276;2023-07-08T06:33:30;3.83;;;2.88;;
6043;SDS011;3050;42.660;23.276;2023-07-08T06:35:57;3.33;;;3.05;;
6043;SDS011;3050;42.660;23.276;2023-07-08T06:38:24;3.25;;;3.03;;
6043;SDS011;3050;42.660;23.276;2023-07-08T06:40:51;4.15;;;3.85;;
6043;SDS011;3050;42.660;23.276;2023-07-08T06:43:18;11.05;;;3.05;;
6043;SDS011;3050;42.660;23.276;2023-07-08T06:45:44;4.93;;;3.70;;
6043;SDS011;3050;42.660;23.276;2023-07-08T06:48:11;13.73;;;3.55;;
6043;SDS011;3050;42.660;23.276;2023-07-08T06:50:41;3.58;;;3.38;;
6043;SDS011;3050;42.660;23.276;2023-07-08T06:53:07;4.43;;;2.92;;
6043;SDS011;3050;42.660;23.276;2023-07-08T06:55:34;6.75;;;3.40;;
6043;SDS011;3050;42.660;23.276;2023-07-08T06:58:01;4.18;;;3.05;;
6043;SDS011;3050;42.660;23.276;2023-07-08T07:00:28;3.70;;;3.50;;
6043;SDS011;3050;42.660;23.276;2023-07-08T07:03:00;3.08;;;2.88;;
6043;SDS011;3050;42.660;23.276;2023-07-08T07:05:26;3.78;;;3.08;;
6043;SDS011;3050;42.660;23.276;2023-07-08T07:07:55;3.20;;;3.00;;
6043;SDS011;3050;42.660;23.276;2023-07-08T07:10:24;3.97;;;3.72;;
6043;SDS011;3050;42.660;23.276;2023-07-08T07:12:57;5.45;;;3.50;;
6043;SDS011;3050;42.660;23.276;2023-07-08T07:15:24;5.75;;;3.40;;
6043;SDS011;3050;42.660;23.276;2023-07-08T07:17:51;3.22;;;3.03;;
6043;SDS011;3050;42.660;23.276;2023-07-08T07:20:19;3.80;;;3.53;;
6043;SDS011;3050;42.660;23.276;2023-07-08T07:22:45;5.03;;;4.03;;
6043;SDS011;3050;42.660;23.276;2023-07-08T07:25:14;4.30;;;3.88;;
6043;SDS011;3050;42.660;23.276;2023-07-08T07:27:41;4.15;;;3.50;;
6043;SDS011;3050;42.660;23.276;2023-07-08T07:30:09;4.68;;;4.38;;
6043;SDS011;3050;42.660;23.276;2023-07-08T07:32:40;4.97;;;4.57;;
6043;SDS011;3050;42.660;23.276;2023-07-08T07:35:08;3.90;;;3.53;;
6043;SDS011;3050;42.660;23.276;2023-07-08T07:37:38;4.07;;;3.88;;
6043;SDS011;3050;42.660;23.276;2023-07-08T07:40:05;5.03;;;3.83;;
6043;SDS011;3050;42.660;23.276;2023-07-08T07:42:39;3.67;;;3.47;;
6043;SDS011;3050;42.660;23.276;2023-07-08T07:45:06;4.00;;;3.67;;
6043;SDS011;3050;42.660;23.276;2023-07-08T07:47:32;3.35;;;3.15;;
6043;SDS011;3050;42.660;23.276;2023-07-08T07:49:59;3.67;;;3.38;;
6043;SDS011;3050;42.660;23.276;2023-07-08T07:52:26;3.95;;;3.55;;
6043;SDS011;3050;42.660;23.276;2023-07-08T07:54:53;4.32;;;3.60;;
6043;SDS011;3050;42.660;23.276;2023-07-08T07:57:20;3.47;;;3.28;;
6043;SDS011;3050;42.660;23.276;2023-07-08T07:59:48;3.92;;;3.58;;
6043;SDS011;3050;42.660;23.276;2023-07-08T08:02:15;8.23;;;3.58;;
6043;SDS011;3050;42.660;23.276;2023-07-08T08:04:42;9.38;;;3.03;;
6043;SDS011;3050;42.660;23.276;2023-07-08T08:07:09;3.45;;;3.22;;
6043;SDS011;3050;42.660;23.276;2023-07-08T08:09:36;3.58;;;3.28;;
6043;SDS011;3050;42.660;23.276;2023-07-08T08:12:06;3.83;;;3.20;;
6043;SDS011;3050;42.660;23.276;2023-07-08T08:14:33;3.45;;;3.22;;
6043;SDS011;3050;42.660;23.276;2023-07-08T08:17:02;3.90;;;3.55;;
6043;SDS011;3050;42.660;23.276;2023-07-08T08:19:29;2.80;;;2.70;;
6043;SDS011;3050;42.660;23.276;2023-07-08T08:21:56;3.05;;;2.95;;
6043;SDS011;3050;42.660;23.276;2023-07-08T08:24:23;3.78;;;3.47;;
6043;SDS011;3050;42.660;23.276;2023-07-08T08:26:50;3.17;;;3.08;;
6043;SDS011;3050;42.660;23.276;2023-07-08T08:29:17;6.00;;;4.45;;
6043;SDS011;3050;42.660;23.276;2023-07-08T08:31:44;6.38;;;3.78;;
6043;SDS011;3050;42.660;23.276;2023-07-08T08:34:13;10.48;;;3.42;;
6043;SDS011;3050;42.660;23.276;2023-07-08T08:36:40;3.45;;;3.15;;
6043;SDS011;3050;42.660;23.276;2023-07-08T08:39:08;3.55;;;3.35;;
6043;SDS011;3050;42.660;23.276;2023-07-08T08:41:36;3.40;;;3.13;;
6043;SDS011;3050;42.660;23.276;2023-07-08T08:44:03;4.18;;;3.83;;
6043;SDS011;3050;42.660;23.276;2023-07-08T08:46:32;3.53;;;3.25;;
6043;SDS011;3050;42.660;23.276;2023-07-08T08:49:02;5.22;;;3.85;;
6043;SDS011;3050;42.660;23.276;2023-07-08T08:51:33;3.40;;;3.20;;
6043;SDS011;3050;42.660;23.276;2023-07-08T08:53:59;3.38;;;3.08;;
6043;SDS011;3050;42.660;23.276;2023-07-08T08:56:27;3.67;;;3.10;;
6043;SDS011;3050;42.660;23.276;2023-07-08T08:58:56;3.53;;;3.33;;
6043;SDS011;3050;42.660;23.276;2023-07-08T09:01:25;3.15;;;2.95;;
6043;SDS011;3050;42.660;23.276;2023-07-08T09:03:55;3.85;;;3.50;;
6043;SDS011;3050;42.660;23.276;2023-07-08T09:06:23;2.88;;;2.67;;
6043;SDS011;3050;42.660;23.276;2023-07-08T09:08:52;3.97;;;3.72;;
6043;SDS011;3050;42.660;23.276;2023-07-08T09:11:25;3.45;;;3.20;;
6043;SDS011;3050;42.660;23.276;2023-07-08T09:13:54;3.25;;;2.95;;
6043;SDS011;3050;42.660;23.276;2023-07-08T09:16:25;3.65;;;3.38;;
6043;SDS011;3050;42.660;23.276;2023-07-08T09:18:55;3.15;;;2.95;;
6043;SDS011;3050;42.660;23.276;2023-07-08T09:21:24;3.35;;;3.15;;
6043;SDS011;3050;42.660;23.276;2023-07-08T09:23:54;8.85;;;4.72;;
6043;SDS011;3050;42.660;23.276;2023-07-08T09:26:25;3.17;;;3.05;;
6043;SDS011;3050;42.660;23.276;2023-07-08T09:28:54;4.30;;;3.92;;
6043;SDS011;3050;42.660;23.276;2023-07-08T09:31:21;5.10;;;3.88;;
6043;SDS011;3050;42.660;23.276;2023-07-08T09:33:50;8.52;;;4.82;;
6043;SDS011;3050;42.660;23.276;2023-07-08T09:36:18;4.95;;;3.38;;
6043;SDS011;3050;42.660;23.276;2023-07-08T09:38:47;3.10;;;2.92;;
6043;SDS011;3050;42.660;23.276;2023-07-08T09:41:16;4.70;;;4.30;;
6043;SDS011;3050;42.660;23.276;2023-07-08T09:43:43;3.97;;;3.70;;
6043;SDS011;3050;42.660;23.276;2023-07-08T09:46:11;2.97;;;2.88;;
6043;SDS011;3050;42.660;23.276;2023-07-08T09:48:38;4.13;;;3.20;;
6043;SDS011;3050;42.660;23.276;2023-07-08T09:51:06;4.28;;;2.95;;
6043;SDS011;3050;42.660;23.276;2023-07-08T09:53:33;3.75;;;3.53;;
6043;SDS011;3050;42.660;23.276;2023-07-08T09:56:01;2.65;;;2.47;;
6043;SDS011;3050;42.660;23.276;2023-07-08T09:58:32;2.97;;;2.78;;
6043;SDS011;3050;42.660;23.276;2023-07-08T10:01:00;3.65;;;3.20;;
6043;SDS011;3050;42.660;23.276;2023-07-08T10:03:28;3.28;;;2.97;;
6043;SDS011;3050;42.660;23.276;2023-07-08T10:05:57;3.22;;;3.03;;
6043;SDS011;3050;42.660;23.276;2023-07-08T10:08:28;2.63;;;2.50;;
6043;SDS011;3050;42.660;23.276;2023-07-08T10:10:58;3.25;;;3.05;;
6043;SDS011;3050;42.660;23.276;2023-07-08T10:13:26;3.20;;;2.90;;
6043;SDS011;3050;42.660;23.276;2023-07-08T10:15:57;5.75;;;3.03;;
6043;SDS011;3050;42.660;23.276;2023-07-08T10:18:28;2.55;;;2.45;;
6043;SDS011;3050;42.660;23.276;2023-07-08T10:20:57;2.95;;;2.85;;
6043;SDS011;3050;42.660;23.276;2023-07-08T10:23:27;2.38;;;2.28;;
6043;SDS011;3050;42.660;23.276;2023-07-08T10:26:04;2.70;;;2.60;;
6043;SDS011;3050;42.660;23.276;2023-07-08T10:28:37;2.70;;;2.60;;
6043;SDS011;3050;42.660;23.276;2023-07-08T10:31:11;3.00;;;2.80;;
6043;SDS011;3050;42.660;23.276;2023-07-08T10:33:53;2.58;;;2.38;;
6043;SDS011;3050;42.660;23.276;2023-07-08T10:36:27;3.47;;;2.58;;
6043;SDS011;3050;42.660;23.276;2023-07-08T10:39:17;2.10;;;2.00;;
6043;SDS011;3050;42.660;23.276;2023-07-08T10:42:00;2.70;;;2.60;;
6043;SDS011;3050;42.660;23.276;2023-07-08T10:44:31;2.33;;;2.22;;
6043;SDS011;3050;42.660;23.276;2023-07-08T10:47:05;2.42;;;2.30;;
6043;SDS011;3050;42.660;23.276;2023-07-08T10:49:43;2.50;;;2.40;;
6043;SDS011;3050;42.660;23.276;2023-07-08T10:52:19;5.85;;;2.10;;
6043;SDS011;3050;42.660;23.276;2023-07-08T10:55:07;2.28;;;2.17;;
6043;SDS011;3050;42.660;23.276;2023-07-08T10:57:40;2.83;;;2.35;;
6043;SDS011;3050;42.660;23.276;2023-07-08T11:00:15;2.33;;;2.17;;
6043;SDS011;3050;42.660;23.276;2023-07-08T11:05:31;2.72;;;2.28;;
6043;SDS011;3050;42.660;23.276;2023-07-08T11:08:01;2.28;;;2.17;;
6043;SDS011;3050;42.660;23.276;2023-07-08T11:10:29;7.35;;;2.63;;
6043;SDS011;3050;42.660;23.276;2023-07-08T11:13:01;10.20;;;2.30;;
6043;SDS011;3050;42.660;23.276;2023-07-08T11:15:31;2.20;;;2.10;;
6043;SDS011;3050;42.660;23.276;2023-07-08T11:18:02;3.92;;;2.65;;
6043;SDS011;3050;42.660;23.276;2023-07-08T11:20:38;2.47;;;2.38;;
6043;SDS011;3050;42.660;23.276;2023-07-08T11:23:10;2.70;;;2.50;;
6043;SDS011;3050;42.660;23.276;2023-07-08T11:25:39;2.63;;;2.53;;
6043;SDS011;3050;42.660;23.276;2023-07-08T11:28:10;3.80;;;2.20;;
6043;SDS011;3050;42.660;23.276;2023-07-08T11:30:40;2.83;;;2.70;;
6043;SDS011;3050;42.660;23.276;2023-07-08T11:33:08;2.90;;;2.70;;
6043;SDS011;3050;42.660;23.276;2023-07-08T11:35:39;2.88;;;2.67;;
6043;SDS011;3050;42.660;23.276;2023-07-08T11:38:09;2.72;;;2.53;;
6043;SDS011;3050;42.660;23.276;2023-07-08T11:40:48;2.75;;;2.55;;
6043;SDS011;3050;42.660;23.276;2023-07-08T11:43:18;2.50;;;2.40;;
6043;SDS011;3050;42.660;23.276;2023-07-08T11:45:45;2.05;;;1.95;;
6043;SDS011;3050;42.660;23.276;2023-07-08T11:48:15;2.85;;;2.60;;
6043;SDS011;3050;42.660;23.276;2023-07-08T11:50:44;2.40;;;2.30;;
6043;SDS011;3050;42.660;23.276;2023-07-08T11:53:13;2.10;;;2.00;;
6043;SDS011;3050;42.660;23.276;2023-07-08T11:55:43;2.28;;;2.17;;
6043;SDS011;3050;42.660;23.276;2023-07-08T11:58:16;2.45;;;2.35;;
6043;SDS011;3050;42.660;23.276;2023-07-08T12:00:45;2.50;;;2.40;;
6043;SDS011;3050;42.660;23.276;2023-07-08T12:03:20;2.78;;;2.42;;
6043;SDS011;3050;42.660;23.276;2023-07-08T12:05:48;2.22;;;2.13;;
6043;SDS011;3050;42.660;23.276;2023-07-08T12:08:17;2.13;;;2.03;;
6043;SDS011;3050;42.660;23.276;2023-07-08T12:10:46;8.52;;;2.30;;
6043;SDS011;3050;42.660;23.276;2023-07-08T12:13:14;2.50;;;2.30;;
6043;SDS011;3050;42.660;23.276;2023-07-08T12:15:42;2.28;;;2.17;;
6043;SDS011;3050;42.660;23.276;2023-07-08T12:18:11;6.97;;;3.00;;
6043;SDS011;3050;42.660;23.276;2023-07-08T12:20:40;2.80;;;2.40;;
6043;SDS011;3050;42.660;23.276;2023-07-08T12:23:11;2.63;;;2.42;;
6043;SDS011;3050;42.660;23.276;2023-07-08T12:25:38;2.67;;;2.47;;
6043;SDS011;3050;42.660;23.276;2023-07-08T12:28:05;2.33;;;2.22;;
6043;SDS011;3050;42.660;23.276;2023-07-08T12:30:33;1.92;;;1.83;;
6043;SDS011;3050;42.660;23.276;2023-07-08T12:33:00;2.28;;;2.17;;
6043;SDS011;3050;42.660;23.276;2023-07-08T12:35:28;2.88;;;2.00;;
6043;SDS011;3050;42.660;23.276;2023-07-08T12:38:00;2.25;;;1.98;;
6043;SDS011;3050;42.660;23.276;2023-07-08T12:40:29;2.00;;;1.90;;
6043;SDS011;3050;42.660;23.276;2023-07-08T12:42:57;1.80;;;1.70;;
6043;SDS011;3050;42.660;23.276;2023-07-08T12:45:26;3.63;;;2.17;;
6043;SDS011;3050;42.660;23.276;2023-07-08T12:47:54;3.10;;;2.28;;
6043;SDS011;3050;42.660;23.276;2023-07-08T12:50:21;2.40;;;2.28;;
6043;SDS011;3050;42.660;23.276;2023-07-08T12:52:51;2.47;;;2.28;;
6043;SDS011;3050;42.660;23.276;2023-07-08T12:55:18;2.10;;;2.00;;
6043;SDS011;3050;42.660;23.276;2023-07-08T12:57:48;2.40;;;2.20;;
6043;SDS011;3050;42.660;23.276;2023-07-08T13:00:18;1.92;;;1.83;;
6043;SDS011;3050;42.660;23.276;2023-07-08T13:02:47;2.28;;;2.17;;
6043;SDS011;3050;42.660;23.276;2023-07-08T13:05:19;2.38;;;2.28;;
6043;SDS011;3050;42.660;23.276;2023-07-08T13:07:46;1.98;;;1.88;;
6043;SDS011;3050;42.660;23.276;2023-07-08T13:10:17;2.40;;;1.75;;
6043;SDS011;3050;42.660;23.276;2023-07-08T13:12:44;5.85;;;2.33;;
6043;SDS011;3050;42.660;23.276;2023-07-08T13:15:16;2.10;;;2.00;;
6043;SDS011;3050;42.660;23.276;2023-07-08T13:17:46;3.22;;;1.80;;
6043;SDS011;3050;42.660;23.276;2023-07-08T13:20:15;1.60;;;1.50;;
6043;SDS011;3050;42.660;23.276;2023-07-08T13:22:46;1.95;;;1.88;;
6043;SDS011;3050;42.660;23.276;2023-07-08T13:25:13;2.15;;;2.05;;
6043;SDS011;3050;42.660;23.276;2023-07-08T13:27:41;1.88;;;1.77;;
6043;SDS011;3050;42.660;23.276;2023-07-08T13:30:15;1.70;;;1.70;;
6043;SDS011;3050;42.660;23.276;2023-07-08T13:32:43;1.60;;;1.50;;
6043;SDS011;3050;42.660;23.276;2023-07-08T13:35:20;1.80;;;1.70;;
6043;SDS011;3050;42.660;23.276;2023-07-08T13:37:47;2.83;;;2.00;;
6043;SDS011;3050;42.660;23.276;2023-07-08T13:40:15;1.85;;;1.75;;
6043;SDS011;3050;42.660;23.276;2023-07-08T13:42:46;2.08;;;1.88;;
6043;SDS011;3050;42.660;23.276;2023-07-08T13:45:15;1.85;;;1.45;;
6043;SDS011;3050;42.660;23.276;2023-07-08T13:47:43;2.47;;;2.17;;
6043;SDS011;3050;42.660;23.276;2023-07-08T13:50:12;1.90;;;1.80;;
6043;SDS011;3050;42.660;23.276;2023-07-08T13:52:43;2.22;;;2.13;;
6043;SDS011;3050;42.660;23.276;2023-07-08T13:55:15;2.20;;;2.00;;
6043;SDS011;3050;42.660;23.276;2023-07-08T13:57:44;4.25;;;2.20;;
6043;SDS011;3050;42.660;23.276;2023-07-08T14:00:12;2.03;;;1.92;;
6043;SDS011;3050;42.660;23.276;2023-07-08T14:02:42;2.30;;;2.03;;
6043;SDS011;3050;42.660;23.276;2023-07-08T14:05:09;2.20;;;2.00;;
6043;SDS011;3050;42.660;23.276;2023-07-08T14:07:38;2.10;;;1.98;;
6043;SDS011;3050;42.660;23.276;2023-07-08T14:10:08;3.95;;;2.10;;
6043;SDS011;3050;42.660;23.276;2023-07-08T14:12:35;1.88;;;1.77;;
6043;SDS011;3050;42.660;23.276;2023-07-08T14:15:02;2.65;;;1.83;;
6043;SDS011;3050;42.660;23.276;2023-07-08T14:17:29;2.08;;;1.98;;
6043;SDS011;3050;42.660;23.276;2023-07-08T14:19:57;3.80;;;1.65;;
6043;SDS011;3050;42.660;23.276;2023-07-08T14:22:26;1.75;;;1.70;;
6043;SDS011;3050;42.660;23.276;2023-07-08T14:24:53;2.08;;;1.98;;
6043;SDS011;3050;42.660;23.276;2023-07-08T14:27:20;1.88;;;1.77;;
6043;SDS011;3050;42.660;23.276;2023-07-08T14:29:48;1.80;;;1.70;;
6043;SDS011;3050;42.660;23.276;2023-07-08T14:32:16;2.25;;;1.40;;
6043;SDS011;3050;42.660;23.276;2023-07-08T14:34:48;1.73;;;1.63;;
6043;SDS011;3050;42.660;23.276;2023-07-08T14:37:17;2.40;;;1.92;;
6043;SDS011;3050;42.660;23.276;2023-07-08T14:39:44;2.30;;;2.10;;
6043;SDS011;3050;42.660;23.276;2023-07-08T14:42:11;1.95;;;1.85;;
6043;SDS011;3050;42.660;23.276;2023-07-08T14:44:39;2.47;;;2.00;;
6043;SDS011;3050;42.660;23.276;2023-07-08T14:47:08;2.22;;;2.13;;
6043;SDS011;3050;42.660;23.276;2023-07-08T14:49:35;2.00;;;1.67;;
6043;SDS011;3050;42.660;23.276;2023-07-08T14:52:02;1.88;;;1.77;;
6043;SDS011;3050;42.660;23.276;2023-07-08T14:54:30;2.00;;;1.90;;
6043;SDS011;3050;42.660;23.276;2023-07-08T14:56:57;2.67;;;2.47;;
6043;SDS011;3050;42.660;23.276;2023-07-08T14:59:25;1.65;;;1.55;;
6043;SDS011;3050;42.660;23.276;2023-07-08T15:01:52;1.83;;;1.83;;
6043;SDS011;3050;42.660;23.276;2023-07-08T15:04:20;1.92;;;1.83;;
6043;SDS011;3050;42.660;23.276;2023-07-08T15:06:47;2.17;;;2.08;;
6043;SDS011;3050;42.660;23.276;2023-07-08T15:09:14;2.35;;;1.92;;
6043;SDS011;3050;42.660;23.276;2023-07-08T15:11:43;2.63;;;2.00;;
6043;SDS011;3050;42.660;23.276;2023-07-08T15:14:22;4.15;;;1.98;;